sensor_id;sensor_type;location;lat;lon;timestamp;P1;durP1;ratioP1;P2;durP2;ratioP2
73337;SDS011;61575;49.908;35.556;2024-02-21T00:00:34;16.70;;;9.10;;
73337;SDS011;61575;49.908;35.556;2024-02-21T00:03:36;14.75;;;7.75;;
73337;SDS011;61575;49.908;35.556;2024-02-21T00:06:38;19.00;;;8.77;;
73337;SDS011;61575;49.908;35.556;2024-02-21T00:09:40;17.67;;;9.60;;
73337;SDS011;61575;49.908;35.556;2024-02-21T00:12:42;14.07;;;8.63;;
73337;SDS011;61575;49.908;35.556;2024-02-21T00:15:43;13.45;;;7.57;;
73337;SDS011;61575;49.908;35.556;2024-02-21T00:18:45;15.07;;;8.32;;
73337;SDS011;61575;49.908;35.556;2024-02-21T00:21:47;12.75;;;7.15;;
73337;SDS011;61575;49.908;35.556;2024-02-21T00:24:49;15.05;;;6.72;;
73337;SDS011;61575;49.908;35.556;2024-02-21T00:27:51;12.98;;;6.63;;
73337;SDS011;61575;49.908;35.556;2024-02-21T00:30:55;13.02;;;6.40;;
73337;SDS011;61575;49.908;35.556;2024-02-21T00:33:57;12.30;;;6.30;;
73337;SDS011;61575;49.908;35.556;2024-02-21T00:36:59;10.43;;;5.38;;
73337;SDS011;61575;49.908;35.556;2024-02-21T00:40:01;19.17;;;10.40;;
73337;SDS011;61575;49.908;35.556;2024-02-21T00:43:03;14.63;;;8.47;;
73337;SDS011;61575;49.908;35.556;2024-02-21T00:46:06;18.90;;;9.82;;
73337;SDS011;61575;49.908;35.556;2024-02-21T00:52:11;11.85;;;5.75;;
73337;SDS011;61575;49.908;35.556;2024-02-21T00:55:13;13.53;;;6.80;;
73337;SDS011;61575;49.908;35.556;2024-02-21T00:58:15;8.67;;;5.07;;
73337;SDS011;61575;49.908;35.556;2024-02-21T01:01:23;11.77;;;5.73;;
73337;SDS011;61575;49.908;35.556;2024-02-21T01:04:27;16.27;;;6.90;;
73337;SDS011;61575;49.908;35.556;2024-02-21T01:07:29;10.77;;;5.65;;
73337;SDS011;61575;49.908;35.556;2024-02-21T01:10:31;17.93;;;9.00;;
73337;SDS011;61575;49.908;35.556;2024-02-21T01:13:33;20.57;;;11.27;;
73337;SDS011;61575;49.908;35.556;2024-02-21T01:16:35;17.83;;;8.90;;
73337;SDS011;61575;49.908;35.556;2024-02-21T01:19:37;13.63;;;6.70;;
73337;SDS011;61575;49.908;35.556;2024-02-21T01:22:40;13.45;;;8.10;;
73337;SDS011;61575;49.908;35.556;2024-02-21T01:25:42;10.85;;;5.13;;
73337;SDS011;61575;49.908;35.556;2024-02-21T01:28:44;12.40;;;5.60;;
73337;SDS011;61575;49.908;35.556;2024-02-21T01:31:46;12.63;;;5.82;;
73337;SDS011;61575;49.908;35.556;2024-02-21T01:34:49;14.57;;;6.50;;
73337;SDS011;61575;49.908;35.556;2024-02-21T01:37:50;12.07;;;5.45;;
73337;SDS011;61575;49.908;35.556;2024-02-21T01:40:53;13.23;;;6.07;;
73337;SDS011;61575;49.908;35.556;2024-02-21T01:43:55;10.07;;;4.83;;
73337;SDS011;61575;49.908;35.556;2024-02-21T01:46:57;13.43;;;5.90;;
73337;SDS011;61575;49.908;35.556;2024-02-21T01:50:00;11.73;;;5.72;;
73337;SDS011;61575;49.908;35.556;2024-02-21T01:53:04;11.25;;;6.65;;
73337;SDS011;61575;49.908;35.556;2024-02-21T01:59:09;14.68;;;7.60;;
73337;SDS011;61575;49.908;35.556;2024-02-21T02:05:14;10.57;;;5.50;;
73337;SDS011;61575;49.908;35.556;2024-02-21T02:08:19;10.75;;;5.20;;
73337;SDS011;61575;49.908;35.556;2024-02-21T02:11:25;13.10;;;5.90;;
73337;SDS011;61575;49.908;35.556;2024-02-21T02:14:27;12.77;;;6.30;;
73337;SDS011;61575;49.908;35.556;2024-02-21T02:17:30;11.23;;;5.30;;
73337;SDS011;61575;49.908;35.556;2024-02-21T02:20:32;13.77;;;6.82;;
73337;SDS011;61575;49.908;35.556;2024-02-21T02:23:34;16.70;;;7.60;;
73337;SDS011;61575;49.908;35.556;2024-02-21T02:26:36;12.70;;;6.07;;
73337;SDS011;61575;49.908;35.556;2024-02-21T02:29:38;12.00;;;6.43;;
73337;SDS011;61575;49.908;35.556;2024-02-21T02:32:44;12.80;;;6.00;;
73337;SDS011;61575;49.908;35.556;2024-02-21T02:35:47;13.63;;;6.97;;
73337;SDS011;61575;49.908;35.556;2024-02-21T02:38:49;15.30;;;8.13;;
73337;SDS011;61575;49.908;35.556;2024-02-21T02:41:51;17.07;;;7.47;;
73337;SDS011;61575;49.908;35.556;2024-02-21T02:44:53;13.02;;;6.22;;
73337;SDS011;61575;49.908;35.556;2024-02-21T02:47:55;13.00;;;5.78;;
73337;SDS011;61575;49.908;35.556;2024-02-21T02:50:59;11.50;;;5.57;;
73337;SDS011;61575;49.908;35.556;2024-02-21T02:54:01;12.10;;;5.50;;
73337;SDS011;61575;49.908;35.556;2024-02-21T02:57:04;10.45;;;4.80;;
73337;SDS011;61575;49.908;35.556;2024-02-21T03:03:10;13.05;;;5.35;;
73337;SDS011;61575;49.908;35.556;2024-02-21T03:06:12;13.80;;;7.17;;
73337;SDS011;61575;49.908;35.556;2024-02-21T03:09:14;12.60;;;6.00;;
73337;SDS011;61575;49.908;35.556;2024-02-21T03:12:17;12.32;;;6.05;;
73337;SDS011;61575;49.908;35.556;2024-02-21T03:15:26;13.75;;;6.22;;
73337;SDS011;61575;49.908;35.556;2024-02-21T03:18:27;13.43;;;6.07;;
73337;SDS011;61575;49.908;35.556;2024-02-21T03:21:30;13.97;;;6.30;;
73337;SDS011;61575;49.908;35.556;2024-02-21T03:24:32;12.87;;;5.80;;
73337;SDS011;61575;49.908;35.556;2024-02-21T03:27:34;12.53;;;6.33;;
73337;SDS011;61575;49.908;35.556;2024-02-21T03:30:36;11.90;;;7.07;;
73337;SDS011;61575;49.908;35.556;2024-02-21T03:33:39;11.82;;;6.93;;
73337;SDS011;61575;49.908;35.556;2024-02-21T03:36:42;14.75;;;7.22;;
73337;SDS011;61575;49.908;35.556;2024-02-21T03:39:44;11.38;;;5.68;;
73337;SDS011;61575;49.908;35.556;2024-02-21T03:42:46;33.23;;;13.50;;
73337;SDS011;61575;49.908;35.556;2024-02-21T03:45:48;18.42;;;8.18;;
73337;SDS011;61575;49.908;35.556;2024-02-21T03:48:50;24.05;;;10.30;;
73337;SDS011;61575;49.908;35.556;2024-02-21T03:51:52;12.60;;;6.07;;
73337;SDS011;61575;49.908;35.556;2024-02-21T03:54:54;15.95;;;7.78;;
73337;SDS011;61575;49.908;35.556;2024-02-21T03:57:56;14.93;;;7.85;;
73337;SDS011;61575;49.908;35.556;2024-02-21T04:01:01;13.90;;;6.70;;
73337;SDS011;61575;49.908;35.556;2024-02-21T04:04:03;13.82;;;7.13;;
73337;SDS011;61575;49.908;35.556;2024-02-21T04:07:06;25.00;;;11.68;;
73337;SDS011;61575;49.908;35.556;2024-02-21T04:10:08;14.88;;;7.68;;
73337;SDS011;61575;49.908;35.556;2024-02-21T04:13:10;14.68;;;6.53;;
73337;SDS011;61575;49.908;35.556;2024-02-21T04:16:12;12.63;;;6.15;;
73337;SDS011;61575;49.908;35.556;2024-02-21T04:19:14;12.17;;;5.63;;
73337;SDS011;61575;49.908;35.556;2024-02-21T04:22:17;15.33;;;7.07;;
73337;SDS011;61575;49.908;35.556;2024-02-21T04:25:20;16.50;;;7.40;;
73337;SDS011;61575;49.908;35.556;2024-02-21T04:28:22;12.18;;;5.72;;
73337;SDS011;61575;49.908;35.556;2024-02-21T04:31:24;10.27;;;5.23;;
73337;SDS011;61575;49.908;35.556;2024-02-21T04:34:26;13.17;;;5.90;;
73337;SDS011;61575;49.908;35.556;2024-02-21T04:37:29;12.68;;;6.00;;
73337;SDS011;61575;49.908;35.556;2024-02-21T04:40:31;9.40;;;5.00;;
73337;SDS011;61575;49.908;35.556;2024-02-21T04:43:33;11.55;;;5.53;;
73337;SDS011;61575;49.908;35.556;2024-02-21T04:46:35;11.73;;;5.37;;
73337;SDS011;61575;49.908;35.556;2024-02-21T04:49:37;11.83;;;5.70;;
73337;SDS011;61575;49.908;35.556;2024-02-21T04:52:40;11.63;;;5.40;;
73337;SDS011;61575;49.908;35.556;2024-02-21T04:55:42;13.35;;;6.95;;
73337;SDS011;61575;49.908;35.556;2024-02-21T04:58:44;10.35;;;4.88;;
73337;SDS011;61575;49.908;35.556;2024-02-21T05:01:46;12.43;;;6.03;;
73337;SDS011;61575;49.908;35.556;2024-02-21T05:04:48;11.50;;;5.93;;
73337;SDS011;61575;49.908;35.556;2024-02-21T05:07:51;10.85;;;5.60;;
73337;SDS011;61575;49.908;35.556;2024-02-21T05:10:53;12.20;;;5.32;;
73337;SDS011;61575;49.908;35.556;2024-02-21T05:13:55;10.35;;;5.03;;
73337;SDS011;61575;49.908;35.556;2024-02-21T05:16:58;9.90;;;4.47;;
73337;SDS011;61575;49.908;35.556;2024-02-21T05:20:00;10.97;;;5.60;;
73337;SDS011;61575;49.908;35.556;2024-02-21T05:23:02;11.70;;;4.90;;
73337;SDS011;61575;49.908;35.556;2024-02-21T05:26:05;11.18;;;4.80;;
73337;SDS011;61575;49.908;35.556;2024-02-21T05:29:07;9.73;;;4.78;;
73337;SDS011;61575;49.908;35.556;2024-02-21T05:32:09;11.47;;;4.97;;
73337;SDS011;61575;49.908;35.556;2024-02-21T05:35:11;10.15;;;5.10;;
73337;SDS011;61575;49.908;35.556;2024-02-21T05:38:14;10.20;;;5.00;;
73337;SDS011;61575;49.908;35.556;2024-02-21T05:41:16;11.73;;;5.47;;
73337;SDS011;61575;49.908;35.556;2024-02-21T05:44:18;11.60;;;5.20;;
73337;SDS011;61575;49.908;35.556;2024-02-21T05:47:20;10.35;;;5.35;;
73337;SDS011;61575;49.908;35.556;2024-02-21T05:50:23;9.48;;;5.07;;
73337;SDS011;61575;49.908;35.556;2024-02-21T05:53:25;10.38;;;5.30;;
73337;SDS011;61575;49.908;35.556;2024-02-21T05:56:27;10.95;;;5.40;;
73337;SDS011;61575;49.908;35.556;2024-02-21T05:59:30;11.07;;;5.40;;
73337;SDS011;61575;49.908;35.556;2024-02-21T06:02:32;13.40;;;5.57;;
73337;SDS011;61575;49.908;35.556;2024-02-21T06:05:38;11.35;;;4.80;;
73337;SDS011;61575;49.908;35.556;2024-02-21T06:08:40;11.70;;;5.93;;
73337;SDS011;61575;49.908;35.556;2024-02-21T06:11:42;13.45;;;5.88;;
73337;SDS011;61575;49.908;35.556;2024-02-21T06:14:47;13.15;;;5.15;;
73337;SDS011;61575;49.908;35.556;2024-02-21T06:17:49;8.38;;;3.95;;
73337;SDS011;61575;49.908;35.556;2024-02-21T06:20:51;11.52;;;6.05;;
73337;SDS011;61575;49.908;35.556;2024-02-21T06:23:53;8.48;;;3.72;;
73337;SDS011;61575;49.908;35.556;2024-02-21T06:26:55;12.00;;;5.90;;
73337;SDS011;61575;49.908;35.556;2024-02-21T06:29:57;13.50;;;5.97;;
73337;SDS011;61575;49.908;35.556;2024-02-21T06:32:59;13.40;;;5.93;;
73337;SDS011;61575;49.908;35.556;2024-02-21T06:36:01;11.25;;;5.78;;
73337;SDS011;61575;49.908;35.556;2024-02-21T06:39:03;10.38;;;5.90;;
73337;SDS011;61575;49.908;35.556;2024-02-21T06:42:09;10.80;;;5.28;;
73337;SDS011;61575;49.908;35.556;2024-02-21T06:45:11;10.23;;;5.60;;
73337;SDS011;61575;49.908;35.556;2024-02-21T06:48:13;12.03;;;5.73;;
73337;SDS011;61575;49.908;35.556;2024-02-21T06:51:16;11.77;;;5.40;;
73337;SDS011;61575;49.908;35.556;2024-02-21T06:54:18;10.37;;;5.33;;
73337;SDS011;61575;49.908;35.556;2024-02-21T06:57:20;10.25;;;5.43;;
73337;SDS011;61575;49.908;35.556;2024-02-21T07:00:22;9.23;;;5.03;;
73337;SDS011;61575;49.908;35.556;2024-02-21T07:03:26;9.65;;;4.97;;
73337;SDS011;61575;49.908;35.556;2024-02-21T07:06:29;9.20;;;5.30;;
73337;SDS011;61575;49.908;35.556;2024-02-21T07:09:36;8.35;;;4.70;;
73337;SDS011;61575;49.908;35.556;2024-02-21T07:12:38;9.30;;;5.00;;
73337;SDS011;61575;49.908;35.556;2024-02-21T07:15:45;9.20;;;4.72;;
73337;SDS011;61575;49.908;35.556;2024-02-21T07:18:47;9.70;;;4.70;;
73337;SDS011;61575;49.908;35.556;2024-02-21T07:21:49;11.73;;;5.15;;
73337;SDS011;61575;49.908;35.556;2024-02-21T07:24:51;10.23;;;5.47;;
73337;SDS011;61575;49.908;35.556;2024-02-21T07:27:53;11.00;;;5.28;;
73337;SDS011;61575;49.908;35.556;2024-02-21T07:30:55;12.53;;;6.00;;
73337;SDS011;61575;49.908;35.556;2024-02-21T07:33:57;12.38;;;6.25;;
73337;SDS011;61575;49.908;35.556;2024-02-21T07:36:59;10.87;;;5.87;;
73337;SDS011;61575;49.908;35.556;2024-02-21T07:40:01;10.50;;;5.60;;
73337;SDS011;61575;49.908;35.556;2024-02-21T07:43:03;12.07;;;5.68;;
73337;SDS011;61575;49.908;35.556;2024-02-21T07:46:05;9.30;;;5.10;;
73337;SDS011;61575;49.908;35.556;2024-02-21T07:49:07;9.93;;;5.38;;
73337;SDS011;61575;49.908;35.556;2024-02-21T07:52:09;9.68;;;5.57;;
73337;SDS011;61575;49.908;35.556;2024-02-21T07:55:11;9.68;;;4.97;;
73337;SDS011;61575;49.908;35.556;2024-02-21T07:58:13;10.90;;;5.77;;
73337;SDS011;61575;49.908;35.556;2024-02-21T08:01:19;9.05;;;5.45;;
73337;SDS011;61575;49.908;35.556;2024-02-21T08:04:24;9.13;;;4.90;;
73337;SDS011;61575;49.908;35.556;2024-02-21T08:07:26;8.40;;;4.63;;
73337;SDS011;61575;49.908;35.556;2024-02-21T08:10:30;9.05;;;5.10;;
73337;SDS011;61575;49.908;35.556;2024-02-21T08:13:33;9.13;;;5.00;;
73337;SDS011;61575;49.908;35.556;2024-02-21T08:16:35;9.53;;;5.00;;
73337;SDS011;61575;49.908;35.556;2024-02-21T08:19:37;8.57;;;4.87;;
73337;SDS011;61575;49.908;35.556;2024-02-21T08:22:39;9.02;;;5.13;;
73337;SDS011;61575;49.908;35.556;2024-02-21T08:25:41;11.32;;;6.15;;
73337;SDS011;61575;49.908;35.556;2024-02-21T08:28:43;12.25;;;5.22;;
73337;SDS011;61575;49.908;35.556;2024-02-21T08:31:44;8.73;;;4.85;;
73337;SDS011;61575;49.908;35.556;2024-02-21T08:34:46;9.35;;;5.05;;
73337;SDS011;61575;49.908;35.556;2024-02-21T08:37:48;10.13;;;5.17;;
73337;SDS011;61575;49.908;35.556;2024-02-21T08:40:50;11.63;;;5.95;;
73337;SDS011;61575;49.908;35.556;2024-02-21T08:43:53;11.20;;;5.90;;
73337;SDS011;61575;49.908;35.556;2024-02-21T08:46:56;9.18;;;5.05;;
73337;SDS011;61575;49.908;35.556;2024-02-21T08:49:59;8.80;;;5.05;;
73337;SDS011;61575;49.908;35.556;2024-02-21T08:53:15;10.70;;;5.25;;
73337;SDS011;61575;49.908;35.556;2024-02-21T08:56:17;14.02;;;6.47;;
73337;SDS011;61575;49.908;35.556;2024-02-21T08:59:19;10.57;;;5.83;;
73337;SDS011;61575;49.908;35.556;2024-02-21T09:02:22;10.73;;;5.82;;
73337;SDS011;61575;49.908;35.556;2024-02-21T09:05:25;9.85;;;5.65;;
73337;SDS011;61575;49.908;35.556;2024-02-21T09:08:28;13.70;;;6.03;;
73337;SDS011;61575;49.908;35.556;2024-02-21T09:11:31;11.68;;;5.88;;
73337;SDS011;61575;49.908;35.556;2024-02-21T09:14:33;11.07;;;6.30;;
73337;SDS011;61575;49.908;35.556;2024-02-21T09:17:35;11.27;;;5.95;;
73337;SDS011;61575;49.908;35.556;2024-02-21T09:20:37;11.60;;;5.90;;
73337;SDS011;61575;49.908;35.556;2024-02-21T09:23:39;11.70;;;6.03;;
73337;SDS011;61575;49.908;35.556;2024-02-21T09:26:41;10.65;;;5.75;;
73337;SDS011;61575;49.908;35.556;2024-02-21T09:29:43;9.80;;;5.97;;
73337;SDS011;61575;49.908;35.556;2024-02-21T09:32:46;10.37;;;5.20;;
73337;SDS011;61575;49.908;35.556;2024-02-21T09:35:48;10.68;;;5.95;;
73337;SDS011;61575;49.908;35.556;2024-02-21T09:38:51;10.27;;;5.70;;
73337;SDS011;61575;49.908;35.556;2024-02-21T09:41:58;11.55;;;5.82;;
73337;SDS011;61575;49.908;35.556;2024-02-21T09:45:07;10.77;;;5.55;;
73337;SDS011;61575;49.908;35.556;2024-02-21T09:48:19;11.52;;;6.55;;
73337;SDS011;61575;49.908;35.556;2024-02-21T09:51:24;14.05;;;6.85;;
73337;SDS011;61575;49.908;35.556;2024-02-21T09:54:30;13.43;;;7.18;;
73337;SDS011;61575;49.908;35.556;2024-02-21T09:57:34;12.95;;;7.00;;
73337;SDS011;61575;49.908;35.556;2024-02-21T10:00:37;12.77;;;6.18;;
73337;SDS011;61575;49.908;35.556;2024-02-21T10:03:39;10.10;;;5.43;;
73337;SDS011;61575;49.908;35.556;2024-02-21T10:06:41;10.88;;;5.85;;
73337;SDS011;61575;49.908;35.556;2024-02-21T10:09:43;11.57;;;6.07;;
73337;SDS011;61575;49.908;35.556;2024-02-21T10:12:49;11.32;;;5.30;;
73337;SDS011;61575;49.908;35.556;2024-02-21T10:16:02;11.75;;;6.00;;
73337;SDS011;61575;49.908;35.556;2024-02-21T10:19:04;14.13;;;5.97;;
73337;SDS011;61575;49.908;35.556;2024-02-21T10:22:07;11.33;;;6.27;;
73337;SDS011;61575;49.908;35.556;2024-02-21T10:25:11;10.02;;;5.60;;
73337;SDS011;61575;49.908;35.556;2024-02-21T10:28:14;12.25;;;6.13;;
73337;SDS011;61575;49.908;35.556;2024-02-21T10:31:22;11.63;;;6.25;;
73337;SDS011;61575;49.908;35.556;2024-02-21T10:34:28;13.52;;;7.07;;
73337;SDS011;61575;49.908;35.556;2024-02-21T10:37:30;11.33;;;6.43;;
73337;SDS011;61575;49.908;35.556;2024-02-21T10:40:33;12.02;;;6.05;;
73337;SDS011;61575;49.908;35.556;2024-02-21T10:43:39;12.85;;;6.38;;
73337;SDS011;61575;49.908;35.556;2024-02-21T10:46:42;11.18;;;5.90;;
73337;SDS011;61575;49.908;35.556;2024-02-21T10:49:45;11.65;;;6.10;;
73337;SDS011;61575;49.908;35.556;2024-02-21T10:52:54;12.45;;;5.78;;
73337;SDS011;61575;49.908;35.556;2024-02-21T10:56:30;11.30;;;6.00;;
73337;SDS011;61575;49.908;35.556;2024-02-21T10:59:39;12.95;;;6.38;;
73337;SDS011;61575;49.908;35.556;2024-02-21T11:02:42;12.48;;;5.93;;
73337;SDS011;61575;49.908;35.556;2024-02-21T11:05:44;12.35;;;6.28;;
73337;SDS011;61575;49.908;35.556;2024-02-21T11:08:47;13.52;;;6.72;;
73337;SDS011;61575;49.908;35.556;2024-02-21T11:11:52;13.02;;;6.20;;
73337;SDS011;61575;49.908;35.556;2024-02-21T11:15:05;11.85;;;6.00;;
73337;SDS011;61575;49.908;35.556;2024-02-21T11:18:08;10.35;;;5.70;;
73337;SDS011;61575;49.908;35.556;2024-02-21T11:21:10;12.07;;;6.33;;
73337;SDS011;61575;49.908;35.556;2024-02-21T11:24:12;11.98;;;6.45;;
73337;SDS011;61575;49.908;35.556;2024-02-21T11:27:20;12.43;;;6.35;;
73337;SDS011;61575;49.908;35.556;2024-02-21T11:30:27;12.25;;;6.43;;
73337;SDS011;61575;49.908;35.556;2024-02-21T11:33:31;12.90;;;6.68;;
73337;SDS011;61575;49.908;35.556;2024-02-21T11:36:46;14.48;;;6.85;;
73337;SDS011;61575;49.908;35.556;2024-02-21T11:39:52;12.80;;;6.55;;
73337;SDS011;61575;49.908;35.556;2024-02-21T11:42:58;11.98;;;6.28;;
73337;SDS011;61575;49.908;35.556;2024-02-21T11:46:01;12.13;;;6.25;;
73337;SDS011;61575;49.908;35.556;2024-02-21T11:49:07;11.32;;;6.18;;
73337;SDS011;61575;49.908;35.556;2024-02-21T11:52:09;11.57;;;6.18;;
73337;SDS011;61575;49.908;35.556;2024-02-21T11:55:11;14.55;;;6.72;;
73337;SDS011;61575;49.908;35.556;2024-02-21T11:58:13;12.93;;;6.27;;
73337;SDS011;61575;49.908;35.556;2024-02-21T12:01:16;12.63;;;6.45;;
73337;SDS011;61575;49.908;35.556;2024-02-21T12:04:18;14.57;;;7.03;;
73337;SDS011;61575;49.908;35.556;2024-02-21T12:07:22;10.98;;;5.93;;
73337;SDS011;61575;49.908;35.556;2024-02-21T12:10:26;11.35;;;5.53;;
73337;SDS011;61575;49.908;35.556;2024-02-21T12:13:32;14.40;;;6.72;;
73337;SDS011;61575;49.908;35.556;2024-02-21T12:16:34;11.75;;;6.05;;
73337;SDS011;61575;49.908;35.556;2024-02-21T12:19:37;12.85;;;6.05;;
73337;SDS011;61575;49.908;35.556;2024-02-21T12:22:42;15.60;;;6.60;;
73337;SDS011;61575;49.908;35.556;2024-02-21T12:25:45;15.10;;;6.95;;
73337;SDS011;61575;49.908;35.556;2024-02-21T12:28:48;13.97;;;6.63;;
73337;SDS011;61575;49.908;35.556;2024-02-21T12:34:52;14.68;;;7.07;;
73337;SDS011;61575;49.908;35.556;2024-02-21T12:37:55;14.73;;;7.13;;
73337;SDS011;61575;49.908;35.556;2024-02-21T12:40:57;14.30;;;6.88;;
73337;SDS011;61575;49.908;35.556;2024-02-21T12:43:59;12.83;;;7.10;;
73337;SDS011;61575;49.908;35.556;2024-02-21T12:47:02;15.05;;;7.28;;
73337;SDS011;61575;49.908;35.556;2024-02-21T12:50:05;16.45;;;8.02;;
73337;SDS011;61575;49.908;35.556;2024-02-21T12:53:09;14.18;;;6.95;;
73337;SDS011;61575;49.908;35.556;2024-02-21T12:56:23;13.48;;;7.28;;
73337;SDS011;61575;49.908;35.556;2024-02-21T12:59:34;14.80;;;7.35;;
73337;SDS011;61575;49.908;35.556;2024-02-21T13:02:36;12.40;;;6.60;;
73337;SDS011;61575;49.908;35.556;2024-02-21T13:05:41;14.60;;;6.90;;
73337;SDS011;61575;49.908;35.556;2024-02-21T13:08:43;13.80;;;6.80;;
73337;SDS011;61575;49.908;35.556;2024-02-21T13:11:46;13.93;;;7.00;;
73337;SDS011;61575;49.908;35.556;2024-02-21T13:14:49;14.15;;;6.95;;
73337;SDS011;61575;49.908;35.556;2024-02-21T13:17:51;13.23;;;7.10;;
73337;SDS011;61575;49.908;35.556;2024-02-21T13:20:53;15.13;;;6.93;;
73337;SDS011;61575;49.908;35.556;2024-02-21T13:23:55;13.27;;;6.70;;
73337;SDS011;61575;49.908;35.556;2024-02-21T13:26:58;17.00;;;7.88;;
73337;SDS011;61575;49.908;35.556;2024-02-21T13:30:00;15.53;;;7.00;;
73337;SDS011;61575;49.908;35.556;2024-02-21T13:33:09;16.23;;;7.15;;
73337;SDS011;61575;49.908;35.556;2024-02-21T13:36:12;15.93;;;8.15;;
73337;SDS011;61575;49.908;35.556;2024-02-21T13:39:14;14.07;;;7.30;;
73337;SDS011;61575;49.908;35.556;2024-02-21T13:42:17;16.13;;;7.35;;
73337;SDS011;61575;49.908;35.556;2024-02-21T13:45:20;13.68;;;7.03;;
73337;SDS011;61575;49.908;35.556;2024-02-21T13:48:22;13.45;;;6.72;;
73337;SDS011;61575;49.908;35.556;2024-02-21T13:51:25;16.67;;;8.32;;
73337;SDS011;61575;49.908;35.556;2024-02-21T13:54:27;16.20;;;7.82;;
73337;SDS011;61575;49.908;35.556;2024-02-21T13:57:29;15.30;;;7.77;;
73337;SDS011;61575;49.908;35.556;2024-02-21T14:00:31;14.65;;;7.60;;
73337;SDS011;61575;49.908;35.556;2024-02-21T14:03:36;17.13;;;9.02;;
73337;SDS011;61575;49.908;35.556;2024-02-21T14:06:38;17.60;;;9.40;;
73337;SDS011;61575;49.908;35.556;2024-02-21T14:09:45;16.58;;;7.88;;
73337;SDS011;61575;49.908;35.556;2024-02-21T14:12:47;15.30;;;7.60;;
73337;SDS011;61575;49.908;35.556;2024-02-21T14:15:52;17.08;;;8.38;;
73337;SDS011;61575;49.908;35.556;2024-02-21T14:18:54;19.33;;;9.50;;
73337;SDS011;61575;49.908;35.556;2024-02-21T14:21:56;17.20;;;8.57;;
73337;SDS011;61575;49.908;35.556;2024-02-21T14:24:58;22.00;;;9.90;;
73337;SDS011;61575;49.908;35.556;2024-02-21T14:28:00;19.88;;;9.35;;
73337;SDS011;61575;49.908;35.556;2024-02-21T14:31:02;21.13;;;9.77;;
73337;SDS011;61575;49.908;35.556;2024-02-21T14:34:07;18.15;;;9.73;;
73337;SDS011;61575;49.908;35.556;2024-02-21T14:37:10;17.52;;;8.95;;
73337;SDS011;61575;49.908;35.556;2024-02-21T14:40:12;18.10;;;8.80;;
73337;SDS011;61575;49.908;35.556;2024-02-21T14:43:14;19.07;;;10.93;;
73337;SDS011;61575;49.908;35.556;2024-02-21T14:46:16;18.33;;;9.13;;
73337;SDS011;61575;49.908;35.556;2024-02-21T14:49:18;19.55;;;8.95;;
73337;SDS011;61575;49.908;35.556;2024-02-21T14:52:22;18.08;;;8.60;;
73337;SDS011;61575;49.908;35.556;2024-02-21T14:55:26;17.55;;;8.70;;
73337;SDS011;61575;49.908;35.556;2024-02-21T14:58:28;17.55;;;9.32;;
73337;SDS011;61575;49.908;35.556;2024-02-21T15:01:30;19.23;;;8.60;;
73337;SDS011;61575;49.908;35.556;2024-02-21T15:04:39;18.73;;;9.23;;
73337;SDS011;61575;49.908;35.556;2024-02-21T15:07:41;19.85;;;9.07;;
73337;SDS011;61575;49.908;35.556;2024-02-21T15:10:44;17.52;;;7.47;;
73337;SDS011;61575;49.908;35.556;2024-02-21T15:13:46;21.52;;;9.55;;
73337;SDS011;61575;49.908;35.556;2024-02-21T15:16:48;19.97;;;9.17;;
73337;SDS011;61575;49.908;35.556;2024-02-21T15:19:50;20.97;;;10.10;;
73337;SDS011;61575;49.908;35.556;2024-02-21T15:22:52;21.80;;;9.97;;
73337;SDS011;61575;49.908;35.556;2024-02-21T15:25:54;18.38;;;8.35;;
73337;SDS011;61575;49.908;35.556;2024-02-21T15:28:56;18.98;;;9.35;;
73337;SDS011;61575;49.908;35.556;2024-02-21T15:31:58;19.53;;;8.97;;
73337;SDS011;61575;49.908;35.556;2024-02-21T15:35:00;18.73;;;8.97;;
73337;SDS011;61575;49.908;35.556;2024-02-21T15:38:04;23.00;;;10.23;;
73337;SDS011;61575;49.908;35.556;2024-02-21T15:41:06;18.98;;;8.90;;
73337;SDS011;61575;49.908;35.556;2024-02-21T15:44:09;23.60;;;10.48;;
73337;SDS011;61575;49.908;35.556;2024-02-21T15:47:11;21.27;;;9.57;;
73337;SDS011;61575;49.908;35.556;2024-02-21T15:50:13;18.80;;;9.40;;
73337;SDS011;61575;49.908;35.556;2024-02-21T15:53:15;22.42;;;10.10;;
73337;SDS011;61575;49.908;35.556;2024-02-21T15:56:17;21.97;;;11.13;;
73337;SDS011;61575;49.908;35.556;2024-02-21T15:59:19;24.40;;;10.68;;
73337;SDS011;61575;49.908;35.556;2024-02-21T16:02:21;23.05;;;11.55;;
73337;SDS011;61575;49.908;35.556;2024-02-21T16:05:26;23.20;;;11.00;;
73337;SDS011;61575;49.908;35.556;2024-02-21T16:08:30;24.23;;;10.90;;
73337;SDS011;61575;49.908;35.556;2024-02-21T16:14:34;20.02;;;9.35;;
73337;SDS011;61575;49.908;35.556;2024-02-21T16:17:39;19.67;;;9.18;;
73337;SDS011;61575;49.908;35.556;2024-02-21T16:20:41;18.52;;;9.00;;
73337;SDS011;61575;49.908;35.556;2024-02-21T16:23:43;20.35;;;8.77;;
73337;SDS011;61575;49.908;35.556;2024-02-21T16:26:45;28.83;;;12.38;;
73337;SDS011;61575;49.908;35.556;2024-02-21T16:29:48;24.15;;;10.85;;
73337;SDS011;61575;49.908;35.556;2024-02-21T16:32:50;30.98;;;18.10;;
73337;SDS011;61575;49.908;35.556;2024-02-21T16:35:55;20.08;;;10.45;;
73337;SDS011;61575;49.908;35.556;2024-02-21T16:38:58;26.27;;;12.88;;
73337;SDS011;61575;49.908;35.556;2024-02-21T16:42:01;24.10;;;10.98;;
73337;SDS011;61575;49.908;35.556;2024-02-21T16:45:05;20.40;;;9.85;;
73337;SDS011;61575;49.908;35.556;2024-02-21T16:48:10;21.90;;;10.20;;
73337;SDS011;61575;49.908;35.556;2024-02-21T16:51:12;19.35;;;9.48;;
73337;SDS011;61575;49.908;35.556;2024-02-21T16:54:20;23.50;;;10.98;;
73337;SDS011;61575;49.908;35.556;2024-02-21T16:57:23;21.88;;;9.75;;
73337;SDS011;61575;49.908;35.556;2024-02-21T17:00:25;23.30;;;10.95;;
73337;SDS011;61575;49.908;35.556;2024-02-21T17:03:27;23.05;;;10.63;;
73337;SDS011;61575;49.908;35.556;2024-02-21T17:06:29;27.37;;;12.00;;
73337;SDS011;61575;49.908;35.556;2024-02-21T17:09:33;25.42;;;11.68;;
73337;SDS011;61575;49.908;35.556;2024-02-21T17:12:36;27.17;;;11.83;;
73337;SDS011;61575;49.908;35.556;2024-02-21T17:15:38;26.33;;;12.02;;
73337;SDS011;61575;49.908;35.556;2024-02-21T17:18:40;23.75;;;11.20;;
73337;SDS011;61575;49.908;35.556;2024-02-21T17:21:42;22.70;;;11.07;;
73337;SDS011;61575;49.908;35.556;2024-02-21T17:24:44;24.10;;;10.55;;
73337;SDS011;61575;49.908;35.556;2024-02-21T17:27:46;30.67;;;13.63;;
73337;SDS011;61575;49.908;35.556;2024-02-21T17:30:48;23.77;;;11.55;;
73337;SDS011;61575;49.908;35.556;2024-02-21T17:33:50;26.27;;;11.40;;
73337;SDS011;61575;49.908;35.556;2024-02-21T17:36:52;21.07;;;10.60;;
73337;SDS011;61575;49.908;35.556;2024-02-21T17:39:54;30.83;;;14.20;;
73337;SDS011;61575;49.908;35.556;2024-02-21T17:42:56;26.58;;;11.90;;
73337;SDS011;61575;49.908;35.556;2024-02-21T17:46:01;27.30;;;10.73;;
73337;SDS011;61575;49.908;35.556;2024-02-21T17:49:04;23.15;;;10.73;;
73337;SDS011;61575;49.908;35.556;2024-02-21T17:52:08;24.73;;;11.57;;
73337;SDS011;61575;49.908;35.556;2024-02-21T17:55:09;24.30;;;10.57;;
73337;SDS011;61575;49.908;35.556;2024-02-21T17:58:13;32.08;;;14.23;;
73337;SDS011;61575;49.908;35.556;2024-02-21T18:01:16;32.17;;;15.23;;
73337;SDS011;61575;49.908;35.556;2024-02-21T18:04:17;25.13;;;11.53;;
73337;SDS011;61575;49.908;35.556;2024-02-21T18:07:20;26.98;;;12.32;;